sensor_id;sensor_type;location;lat;lon;timestamp;pressure;altitude;pressure_sealevel;temperature;humidity
10482;BME280;5288;42.334;23.876;2022-07-23T00:00:07;55978.31;;;-140.56;63.13
10482;BME280;5288;42.334;23.876;2022-07-23T00:02:34;55998.06;;;-140.56;63.37
10482;BME280;5288;42.334;23.876;2022-07-23T00:05:03;55954.59;;;-140.56;64.59
10482;BME280;5288;42.334;23.876;2022-07-23T00:07:30;55964.47;;;-140.56;64.70
10482;BME280;5288;42.334;23.876;2022-07-23T00:09:57;55958.53;;;-140.56;64.61
10482;BME280;5288;42.334;23.876;2022-07-23T00:12:25;55990.16;;;-140.56;64.87
10482;BME280;5288;42.334;23.876;2022-07-23T00:14:52;55958.53;;;-140.56;64.92
10482;BME280;5288;42.334;23.876;2022-07-23T00:17:19;55994.13;;;-140.56;65.04
10482;BME280;5288;42.334;23.876;2022-07-23T00:19:46;55976.31;;;-140.56;64.99
10482;BME280;5288;42.334;23.876;2022-07-23T00:22:15;55988.19;;;-140.56;65.09
10482;BME280;5288;42.334;23.876;2022-07-23T00:24:42;55970.41;;;-140.56;64.97
10482;BME280;5288;42.334;23.876;2022-07-23T00:27:09;55986.22;;;-140.56;65.33
10482;BME280;5288;42.334;23.876;2022-07-23T00:29:36;55958.53;;;-140.56;65.64
10482;BME280;5288;42.334;23.876;2022-07-23T00:32:03;55970.41;;;-140.56;65.45
10482;BME280;5288;42.334;23.876;2022-07-23T00:34:31;55970.41;;;-140.56;65.52
10482;BME280;5288;42.334;23.876;2022-07-23T00:36:58;56011.91;;;-140.56;65.26
10482;BME280;5288;42.334;23.876;2022-07-23T00:39:26;56025.72;;;-140.56;65.47
10482;BME280;5288;42.334;23.876;2022-07-23T00:41:53;56011.91;;;-140.56;65.66
10482;BME280;5288;42.334;23.876;2022-07-23T00:44:21;55984.22;;;-140.56;65.88
10482;BME280;5288;42.334;23.876;2022-07-23T00:46:50;56005.97;;;-140.56;65.88
10482;BME280;5288;42.334;23.876;2022-07-23T00:49:19;55978.31;;;-140.56;65.60
10482;BME280;5288;42.334;23.876;2022-07-23T00:51:47;55978.31;;;-140.56;65.12
10482;BME280;5288;42.334;23.876;2022-07-23T00:54:15;55984.22;;;-140.56;64.83
10482;BME280;5288;42.334;23.876;2022-07-23T00:56:45;56004.00;;;-140.56;65.05
10482;BME280;5288;42.334;23.876;2022-07-23T00:59:13;56031.66;;;-140.56;64.82
10482;BME280;5288;42.334;23.876;2022-07-23T01:01:40;55974.34;;;-140.56;64.39
10482;BME280;5288;42.334;23.876;2022-07-23T01:04:09;55988.19;;;-140.56;64.17
10482;BME280;5288;42.334;23.876;2022-07-23T01:06:37;56002.00;;;-140.56;63.96
10482;BME280;5288;42.334;23.876;2022-07-23T01:09:06;55988.19;;;-140.56;63.50
10482;BME280;5288;42.334;23.876;2022-07-23T01:11:33;55988.19;;;-140.56;63.45
10482;BME280;5288;42.334;23.876;2022-07-23T01:14:09;55994.13;;;-140.56;63.49
10482;BME280;5288;42.334;23.876;2022-07-23T01:16:37;56007.94;;;-140.56;63.74
10482;BME280;5288;42.334;23.876;2022-07-23T01:19:04;56000.03;;;-140.56;63.35
10482;BME280;5288;42.334;23.876;2022-07-23T01:21:34;55988.19;;;-140.56;63.28
10482;BME280;5288;42.334;23.876;2022-07-23T01:24:04;55998.06;;;-140.56;63.33
10482;BME280;5288;42.334;23.876;2022-07-23T01:26:32;55986.22;;;-140.56;63.54
10482;BME280;5288;42.334;23.876;2022-07-23T01:28:59;56000.03;;;-140.56;63.48
10482;BME280;5288;42.334;23.876;2022-07-23T01:31:26;55980.28;;;-140.56;63.65
10482;BME280;5288;42.334;23.876;2022-07-23T01:33:53;56004.00;;;-140.56;63.36
10482;BME280;5288;42.334;23.876;2022-07-23T01:36:21;56005.97;;;-140.56;63.51
10482;BME280;5288;42.334;23.876;2022-07-23T01:38:48;55984.22;;;-140.56;63.67
10482;BME280;5288;42.334;23.876;2022-07-23T01:41:16;55986.22;;;-140.56;63.10
10482;BME280;5288;42.334;23.876;2022-07-23T01:43:43;56013.88;;;-140.56;63.19
10482;BME280;5288;42.334;23.876;2022-07-23T01:46:11;55996.09;;;-140.56;63.25
10482;BME280;5288;42.334;23.876;2022-07-23T01:48:38;55982.25;;;-140.56;63.12
10482;BME280;5288;42.334;23.876;2022-07-23T01:51:05;55998.06;;;-140.56;63.12
10482;BME280;5288;42.334;23.876;2022-07-23T01:53:32;56002.00;;;-140.56;63.47
10482;BME280;5288;42.334;23.876;2022-07-23T01:56:00;56011.91;;;-140.56;63.48
10482;BME280;5288;42.334;23.876;2022-07-23T01:58:29;55992.13;;;-140.56;63.22
10482;BME280;5288;42.334;23.876;2022-07-23T02:00:56;56000.03;;;-140.56;63.23
10482;BME280;5288;42.334;23.876;2022-07-23T02:03:23;56004.00;;;-140.56;63.67
10482;BME280;5288;42.334;23.876;2022-07-23T02:05:50;55988.19;;;-140.56;63.57
10482;BME280;5288;42.334;23.876;2022-07-23T02:08:17;56009.91;;;-140.56;63.51
10482;BME280;5288;42.334;23.876;2022-07-23T02:10:44;56023.75;;;-140.56;63.55
10482;BME280;5288;42.334;23.876;2022-07-23T02:13:11;56004.00;;;-140.56;64.01
10482;BME280;5288;42.334;23.876;2022-07-23T02:15:40;55958.53;;;-140.56;64.03
10482;BME280;5288;42.334;23.876;2022-07-23T02:18:07;55966.44;;;-140.56;64.16
10482;BME280;5288;42.334;23.876;2022-07-23T02:20:34;55996.09;;;-140.56;64.26
10482;BME280;5288;42.334;23.876;2022-07-23T02:23:04;56045.50;;;-140.56;64.38
10482;BME280;5288;42.334;23.876;2022-07-23T02:25:32;55990.16;;;-140.56;64.54
10482;BME280;5288;42.334;23.876;2022-07-23T02:27:59;56005.97;;;-140.56;65.03
10482;BME280;5288;42.334;23.876;2022-07-23T02:30:26;55984.22;;;-140.56;64.54
10482;BME280;5288;42.334;23.876;2022-07-23T02:32:55;55980.28;;;-140.56;64.06
10482;BME280;5288;42.334;23.876;2022-07-23T02:35:22;56029.69;;;-140.56;64.21
10482;BME280;5288;42.334;23.876;2022-07-23T02:37:49;56002.00;;;-140.56;64.00
10482;BME280;5288;42.334;23.876;2022-07-23T02:40:17;56011.91;;;-140.56;64.20
10482;BME280;5288;42.334;23.876;2022-07-23T02:42:44;56009.91;;;-140.56;64.45
10482;BME280;5288;42.334;23.876;2022-07-23T02:45:11;56000.03;;;-140.56;64.36
10482;BME280;5288;42.334;23.876;2022-07-23T02:47:38;56023.75;;;-140.56;64.94
10482;BME280;5288;42.334;23.876;2022-07-23T02:50:08;56007.94;;;-140.56;65.84
10482;BME280;5288;42.334;23.876;2022-07-23T02:52:35;56053.41;;;-140.56;65.92
10482;BME280;5288;42.334;23.876;2022-07-23T02:55:02;56021.78;;;-140.56;66.40
10482;BME280;5288;42.334;23.876;2022-07-23T02:57:29;56021.78;;;-140.56;66.34
10482;BME280;5288;42.334;23.876;2022-07-23T02:59:56;56011.91;;;-140.56;66.67
10482;BME280;5288;42.334;23.876;2022-07-23T03:02:23;55990.16;;;-140.56;66.50
10482;BME280;5288;42.334;23.876;2022-07-23T03:04:51;56017.81;;;-140.56;66.98
10482;BME280;5288;42.334;23.876;2022-07-23T03:07:20;56031.66;;;-140.56;66.91
10482;BME280;5288;42.334;23.876;2022-07-23T03:09:47;56041.53;;;-140.56;67.08
10482;BME280;5288;42.334;23.876;2022-07-23T03:12:15;56021.78;;;-140.56;67.11
10482;BME280;5288;42.334;23.876;2022-07-23T03:14:42;56057.34;;;-140.56;67.55
10482;BME280;5288;42.334;23.876;2022-07-23T03:17:09;56031.66;;;-140.56;67.73
10482;BME280;5288;42.334;23.876;2022-07-23T03:19:36;56071.19;;;-140.56;67.98
10482;BME280;5288;42.334;23.876;2022-07-23T03:22:04;56021.78;;;-140.56;67.62
10482;BME280;5288;42.334;23.876;2022-07-23T03:24:32;56029.69;;;-140.56;67.57
10482;BME280;5288;42.334;23.876;2022-07-23T03:27:16;56025.72;;;-140.56;67.28
10482;BME280;5288;42.334;23.876;2022-07-23T03:29:43;55998.06;;;-140.56;67.07
10482;BME280;5288;42.334;23.876;2022-07-23T03:32:10;56023.75;;;-140.56;67.18
10482;BME280;5288;42.334;23.876;2022-07-23T03:34:38;55994.13;;;-140.56;67.16
10482;BME280;5288;42.334;23.876;2022-07-23T03:37:05;56055.38;;;-140.56;67.07
10482;BME280;5288;42.334;23.876;2022-07-23T03:39:33;55996.09;;;-140.56;67.32
10482;BME280;5288;42.334;23.876;2022-07-23T03:42:00;55998.06;;;-140.56;67.24
10482;BME280;5288;42.334;23.876;2022-07-23T03:44:27;56015.84;;;-140.56;67.34
10482;BME280;5288;42.334;23.876;2022-07-23T03:46:54;56045.50;;;-140.56;67.46
10482;BME280;5288;42.334;23.876;2022-07-23T03:49:21;56051.41;;;-140.56;67.37
10482;BME280;5288;42.334;23.876;2022-07-23T03:51:49;56025.72;;;-140.56;67.38
10482;BME280;5288;42.334;23.876;2022-07-23T03:54:15;56007.94;;;-140.56;66.91
10482;BME280;5288;42.334;23.876;2022-07-23T03:56:44;56029.69;;;-140.56;67.03
10482;BME280;5288;42.334;23.876;2022-07-23T03:59:11;56005.97;;;-140.56;67.20
10482;BME280;5288;42.334;23.876;2022-07-23T04:01:38;56013.88;;;-140.56;66.70
10482;BME280;5288;42.334;23.876;2022-07-23T04:04:05;56033.63;;;-140.56;66.75
10482;BME280;5288;42.334;23.876;2022-07-23T04:06:34;56005.97;;;-140.56;66.98
10482;BME280;5288;42.334;23.876;2022-07-23T04:09:01;56045.50;;;-140.56;66.22
10482;BME280;5288;42.334;23.876;2022-07-23T04:11:28;56017.81;;;-140.56;66.07
10482;BME280;5288;42.334;23.876;2022-07-23T04:13:56;56035.63;;;-140.56;65.88
10482;BME280;5288;42.334;23.876;2022-07-23T04:16:23;56025.72;;;-140.56;66.03
10482;BME280;5288;42.334;23.876;2022-07-23T04:18:50;55994.13;;;-140.56;65.24
10482;BME280;5288;42.334;23.876;2022-07-23T04:21:17;55994.13;;;-140.56;65.01
10482;BME280;5288;42.334;23.876;2022-07-23T04:23:44;55992.13;;;-140.56;65.04
10482;BME280;5288;42.334;23.876;2022-07-23T04:26:12;56041.53;;;-140.56;65.30
10482;BME280;5288;42.334;23.876;2022-07-23T04:28:39;56017.81;;;-140.56;64.77
10482;BME280;5288;42.334;23.876;2022-07-23T04:31:08;56009.91;;;-140.56;64.87
10482;BME280;5288;42.334;23.876;2022-07-23T04:33:35;55990.16;;;-140.56;64.62
10482;BME280;5288;42.334;23.876;2022-07-23T04:36:02;55982.25;;;-140.56;64.04
10482;BME280;5288;42.334;23.876;2022-07-23T04:38:29;55992.13;;;-140.56;63.79
10482;BME280;5288;42.334;23.876;2022-07-23T04:40:58;56000.03;;;-140.56;63.03
10482;BME280;5288;42.334;23.876;2022-07-23T04:43:25;55978.31;;;-140.56;63.58
10482;BME280;5288;42.334;23.876;2022-07-23T04:45:52;55994.13;;;-140.56;63.40
10482;BME280;5288;42.334;23.876;2022-07-23T04:48:20;55984.22;;;-140.56;62.75
10482;BME280;5288;42.334;23.876;2022-07-23T04:50:47;55998.06;;;-140.56;62.70
10482;BME280;5288;42.334;23.876;2022-07-23T04:53:15;55998.06;;;-140.56;62.01
10482;BME280;5288;42.334;23.876;2022-07-23T04:55:43;56029.69;;;-140.56;62.01
10482;BME280;5288;42.334;23.876;2022-07-23T04:58:10;55974.34;;;-140.56;61.87
10482;BME280;5288;42.334;23.876;2022-07-23T05:00:38;56005.97;;;-140.56;61.71
10482;BME280;5288;42.334;23.876;2022-07-23T05:03:05;55982.25;;;-140.56;61.30
10482;BME280;5288;42.334;23.876;2022-07-23T05:05:33;55992.13;;;-140.56;61.67
10482;BME280;5288;42.334;23.876;2022-07-23T05:08:01;55974.34;;;-140.56;61.11
10482;BME280;5288;42.334;23.876;2022-07-23T05:10:28;55982.25;;;-140.56;61.16
10482;BME280;5288;42.334;23.876;2022-07-23T05:12:55;55968.41;;;-140.56;60.60
10482;BME280;5288;42.334;23.876;2022-07-23T05:15:22;55930.88;;;-140.56;61.36
10482;BME280;5288;42.334;23.876;2022-07-23T05:17:50;55934.81;;;-140.56;60.53
10482;BME280;5288;42.334;23.876;2022-07-23T05:20:17;55970.41;;;-140.56;61.63
10482;BME280;5288;42.334;23.876;2022-07-23T05:22:45;55966.44;;;-140.56;59.91
10482;BME280;5288;42.334;23.876;2022-07-23T05:25:12;55958.53;;;-140.56;58.80
10482;BME280;5288;42.334;23.876;2022-07-23T05:27:39;55984.22;;;-140.56;58.48
10482;BME280;5288;42.334;23.876;2022-07-23T05:30:07;55958.53;;;-140.56;57.23
10482;BME280;5288;42.334;23.876;2022-07-23T05:32:34;55930.88;;;-140.56;57.01
10482;BME280;5288;42.334;23.876;2022-07-23T05:35:02;55952.63;;;-140.56;56.94
10482;BME280;5288;42.334;23.876;2022-07-23T05:37:29;55950.63;;;-140.56;56.15
10482;BME280;5288;42.334;23.876;2022-07-23T05:40:01;55938.78;;;-140.56;54.49
10482;BME280;5288;42.334;23.876;2022-07-23T05:42:29;55944.72;;;-140.56;55.20
10482;BME280;5288;42.334;23.876;2022-07-23T05:44:56;55922.97;;;-140.56;54.66
10482;BME280;5288;42.334;23.876;2022-07-23T05:47:23;55903.22;;;-140.56;54.14
10482;BME280;5288;42.334;23.876;2022-07-23T05:49:50;55895.31;;;-140.56;53.98
10482;BME280;5288;42.334;23.876;2022-07-23T05:52:17;55907.16;;;-140.56;53.28
10482;BME280;5288;42.334;23.876;2022-07-23T05:54:44;55917.03;;;-140.56;52.67
10482;BME280;5288;42.334;23.876;2022-07-23T05:57:12;55891.34;;;-140.56;52.11
10482;BME280;5288;42.334;23.876;2022-07-23T05:59:39;55907.16;;;-140.56;51.87
10482;BME280;5288;42.334;23.876;2022-07-23T06:02:06;55889.38;;;-140.56;50.76
10482;BME280;5288;42.334;23.876;2022-07-23T06:04:33;55871.59;;;-140.56;49.15
10482;BME280;5288;42.334;23.876;2022-07-23T06:07:00;55879.50;;;-140.56;49.15
10482;BME280;5288;42.334;23.876;2022-07-23T06:09:27;55851.84;;;-140.56;48.59
10482;BME280;5288;42.334;23.876;2022-07-23T06:11:54;55847.88;;;-140.56;47.70
10482;BME280;5288;42.334;23.876;2022-07-23T06:14:23;55843.94;;;-140.56;47.48
10482;BME280;5288;42.334;23.876;2022-07-23T06:16:49;55879.50;;;-140.56;46.17
10482;BME280;5288;42.334;23.876;2022-07-23T06:19:17;55859.75;;;-140.56;45.81
10482;BME280;5288;42.334;23.876;2022-07-23T06:21:44;55861.72;;;-140.56;45.48
10482;BME280;5288;42.334;23.876;2022-07-23T06:24:11;55855.78;;;-140.56;45.97
10482;BME280;5288;42.334;23.876;2022-07-23T06:26:38;55830.09;;;-140.56;45.45
10482;BME280;5288;42.334;23.876;2022-07-23T06:29:05;55836.03;;;-140.56;44.59
10482;BME280;5288;42.334;23.876;2022-07-23T06:31:33;55847.88;;;-140.56;45.59
10482;BME280;5288;42.334;23.876;2022-07-23T06:34:00;55828.13;;;-140.56;45.35
10482;BME280;5288;42.334;23.876;2022-07-23T06:36:27;55814.28;;;-140.56;43.80
10482;BME280;5288;42.334;23.876;2022-07-23T06:38:54;55824.16;;;-140.56;43.80
10482;BME280;5288;42.334;23.876;2022-07-23T06:41:21;55800.47;;;-140.56;43.24
10482;BME280;5288;42.334;23.876;2022-07-23T06:43:48;55824.16;;;-140.56;42.93
10482;BME280;5288;42.334;23.876;2022-07-23T06:46:15;55780.69;;;-140.56;42.74
10482;BME280;5288;42.334;23.876;2022-07-23T06:48:44;55786.63;;;-140.56;42.45
10482;BME280;5288;42.334;23.876;2022-07-23T06:51:11;55814.28;;;-140.56;41.71
10482;BME280;5288;42.334;23.876;2022-07-23T06:53:38;55776.75;;;-140.56;41.16
10482;BME280;5288;42.334;23.876;2022-07-23T06:56:05;55812.31;;;-140.56;41.35
10482;BME280;5288;42.334;23.876;2022-07-23T06:58:32;55764.88;;;-140.56;40.87
10482;BME280;5288;42.334;23.876;2022-07-23T07:00:59;55784.66;;;-140.56;41.17
10482;BME280;5288;42.334;23.876;2022-07-23T07:03:26;55780.69;;;-140.56;40.30
10482;BME280;5288;42.334;23.876;2022-07-23T07:05:55;55772.78;;;-140.56;39.16
10482;BME280;5288;42.334;23.876;2022-07-23T07:08:22;55747.09;;;-140.56;39.85
10482;BME280;5288;42.334;23.876;2022-07-23T07:10:50;55755.00;;;-140.56;40.45
10482;BME280;5288;42.334;23.876;2022-07-23T07:13:17;55733.28;;;-140.56;40.40
10482;BME280;5288;42.334;23.876;2022-07-23T07:15:44;55735.25;;;-140.56;39.63
10482;BME280;5288;42.334;23.876;2022-07-23T07:18:11;55745.13;;;-140.56;40.39
10482;BME280;5288;42.334;23.876;2022-07-23T07:20:38;55768.84;;;-140.56;40.07
10482;BME280;5288;42.334;23.876;2022-07-23T07:23:06;55755.00;;;-140.56;37.88
10482;BME280;5288;42.334;23.876;2022-07-23T07:25:33;55731.28;;;-140.56;39.67
10482;BME280;5288;42.334;23.876;2022-07-23T07:28:01;55713.50;;;-140.56;38.25
10482;BME280;5288;42.334;23.876;2022-07-23T07:30:28;55713.50;;;-140.56;37.34
10482;BME280;5288;42.334;23.876;2022-07-23T07:32:55;55721.41;;;-140.56;37.87
10482;BME280;5288;42.334;23.876;2022-07-23T07:35:22;55695.72;;;-140.56;37.01
10482;BME280;5288;42.334;23.876;2022-07-23T07:37:49;55711.53;;;-140.56;37.35
10482;BME280;5288;42.334;23.876;2022-07-23T07:40:18;55723.38;;;-140.56;36.69
10482;BME280;5288;42.334;23.876;2022-07-23T07:42:46;55683.88;;;-140.56;36.45
10482;BME280;5288;42.334;23.876;2022-07-23T07:45:13;55711.53;;;-140.56;37.13
10482;BME280;5288;42.334;23.876;2022-07-23T07:47:40;55675.97;;;-140.56;36.66
10482;BME280;5288;42.334;23.876;2022-07-23T07:50:08;55683.88;;;-140.56;35.04
10482;BME280;5288;42.334;23.876;2022-07-23T07:52:36;55658.19;;;-140.56;36.03
10482;BME280;5288;42.334;23.876;2022-07-23T07:55:03;55674.00;;;-140.56;36.48
10482;BME280;5288;42.334;23.876;2022-07-23T07:57:32;55642.38;;;-140.56;36.29
10482;BME280;5288;42.334;23.876;2022-07-23T07:59:59;55654.22;;;-140.56;34.28
10482;BME280;5288;42.334;23.876;2022-07-23T08:02:26;55658.19;;;-140.56;35.58
10482;BME280;5288;42.334;23.876;2022-07-23T08:04:53;55656.22;;;-140.56;35.77
10482;BME280;5288;42.334;23.876;2022-07-23T08:07:22;55630.53;;;-140.56;35.90
10482;BME280;5288;42.334;23.876;2022-07-23T08:09:49;55634.47;;;-140.56;36.03
10482;BME280;5288;42.334;23.876;2022-07-23T08:12:16;55606.81;;;-140.56;35.19
10482;BME280;5288;42.334;23.876;2022-07-23T08:14:45;55622.63;;;-140.56;34.76
10482;BME280;5288;42.334;23.876;2022-07-23T08:17:12;55622.63;;;-140.56;35.35
10482;BME280;5288;42.334;23.876;2022-07-23T08:19:39;55610.75;;;-140.56;34.99
10482;BME280;5288;42.334;23.876;2022-07-23T08:22:06;55612.75;;;-140.56;34.58
10482;BME280;5288;42.334;23.876;2022-07-23T08:24:33;55622.63;;;-140.56;34.52
10482;BME280;5288;42.334;23.876;2022-07-23T08:27:00;55606.81;;;-140.56;33.85
10482;BME280;5288;42.334;23.876;2022-07-23T08:29:27;55606.81;;;-140.56;34.15
10482;BME280;5288;42.334;23.876;2022-07-23T08:31:55;55571.25;;;-140.56;33.33
10482;BME280;5288;42.334;23.876;2022-07-23T08:34:22;55581.13;;;-140.56;33.04
10482;BME280;5288;42.334;23.876;2022-07-23T08:36:49;55559.38;;;-140.56;33.04
10482;BME280;5288;42.334;23.876;2022-07-23T08:39:16;55559.38;;;-140.56;32.16
10482;BME280;5288;42.334;23.876;2022-07-23T08:41:43;55567.28;;;-140.56;31.96
10482;BME280;5288;42.334;23.876;2022-07-23T08:44:10;55579.16;;;-140.56;32.42
10482;BME280;5288;42.334;23.876;2022-07-23T08:46:39;55551.47;;;-140.56;32.31
10482;BME280;5288;42.334;23.876;2022-07-23T08:49:08;55555.44;;;-140.56;32.70
10482;BME280;5288;42.334;23.876;2022-07-23T08:51:35;55533.69;;;-140.56;32.48
10482;BME280;5288;42.334;23.876;2022-07-23T08:54:02;55523.81;;;-140.56;30.93
10482;BME280;5288;42.334;23.876;2022-07-23T08:56:30;55527.78;;;-140.56;31.22
10482;BME280;5288;42.334;23.876;2022-07-23T08:58:57;55539.63;;;-140.56;31.03
10482;BME280;5288;42.334;23.876;2022-07-23T09:01:24;55513.94;;;-140.56;30.02
10482;BME280;5288;42.334;23.876;2022-07-23T09:03:52;55527.78;;;-140.56;29.13
10482;BME280;5288;42.334;23.876;2022-07-23T09:06:21;55500.09;;;-140.56;29.65
10482;BME280;5288;42.334;23.876;2022-07-23T09:08:48;55494.19;;;-140.56;29.74
10482;BME280;5288;42.334;23.876;2022-07-23T09:11:16;55492.22;;;-140.56;30.28
10482;BME280;5288;42.334;23.876;2022-07-23T09:13:46;55502.09;;;-140.56;29.29
10482;BME280;5288;42.334;23.876;2022-07-23T09:16:16;55525.78;;;-140.56;28.40
10482;BME280;5288;42.334;23.876;2022-07-23T09:18:46;55480.34;;;-140.56;29.04
10482;BME280;5288;42.334;23.876;2022-07-23T09:21:23;55468.50;;;-140.56;28.87
10482;BME280;5288;42.334;23.876;2022-07-23T09:23:55;55466.53;;;-140.56;28.92
10482;BME280;5288;42.334;23.876;2022-07-23T09:26:31;55460.59;;;-140.56;28.70
10482;BME280;5288;42.334;23.876;2022-07-23T09:29:02;55444.78;;;-140.56;28.14
10482;BME280;5288;42.334;23.876;2022-07-23T09:31:41;55452.69;;;-140.56;27.92
10482;BME280;5288;42.334;23.876;2022-07-23T09:34:13;55478.38;;;-140.56;27.83
10482;BME280;5288;42.334;23.876;2022-07-23T09:36:42;55466.53;;;-140.56;27.38
10482;BME280;5288;42.334;23.876;2022-07-23T09:39:10;55450.72;;;-140.56;28.22
10482;BME280;5288;42.334;23.876;2022-07-23T09:41:40;55415.16;;;-140.56;26.34
10482;BME280;5288;42.334;23.876;2022-07-23T09:44:09;55460.59;;;-140.56;25.83
10482;BME280;5288;42.334;23.876;2022-07-23T09:46:36;55448.72;;;-140.56;25.95
10482;BME280;5288;42.334;23.876;2022-07-23T09:49:17;55432.94;;;-140.56;26.55
10482;BME280;5288;42.334;23.876;2022-07-23T09:51:51;55438.84;;;-140.56;26.01
10482;BME280;5288;42.334;23.876;2022-07-23T09:54:27;55425.03;;;-140.56;25.50
10482;BME280;5288;42.334;23.876;2022-07-23T09:56:56;55421.06;;;-140.56;25.71
10482;BME280;5288;42.334;23.876;2022-07-23T09:59:25;55440.84;;;-140.56;25.34
10482;BME280;5288;42.334;23.876;2022-07-23T10:01:53;55428.97;;;-140.56;25.44
10482;BME280;5288;42.334;23.876;2022-07-23T10:04:23;55425.03;;;-140.56;26.80
10482;BME280;5288;42.334;23.876;2022-07-23T10:06:54;55419.09;;;-140.56;27.02
10482;BME280;5288;42.334;23.876;2022-07-23T10:09:24;55417.13;;;-140.56;25.58
10482;BME280;5288;42.334;23.876;2022-07-23T10:11:54;55409.22;;;-140.56;25.42
10482;BME280;5288;42.334;23.876;2022-07-23T10:14:24;55428.97;;;-140.56;25.56
10482;BME280;5288;42.334;23.876;2022-07-23T10:16:53;55413.16;;;-140.56;26.63
10482;BME280;5288;42.334;23.876;2022-07-23T10:19:20;55405.25;;;-140.56;25.35
10482;BME280;5288;42.334;23.876;2022-07-23T10:21:52;55399.34;;;-140.56;24.94
10482;BME280;5288;42.334;23.876;2022-07-23T10:24:42;55381.56;;;-140.56;26.49
10482;BME280;5288;42.334;23.876;2022-07-23T10:27:26;55401.31;;;-140.56;24.42
10482;BME280;5288;42.334;23.876;2022-07-23T10:30:02;55389.47;;;-140.56;25.84
10482;BME280;5288;42.334;23.876;2022-07-23T10:32:44;55365.75;;;-140.56;24.53
10482;BME280;5288;42.334;23.876;2022-07-23T10:35:20;55361.81;;;-140.56;24.60
10482;BME280;5288;42.334;23.876;2022-07-23T10:37:50;55387.47;;;-140.56;24.84
10482;BME280;5288;42.334;23.876;2022-07-23T10:40:21;55371.69;;;-140.56;25.82
10482;BME280;5288;42.334;23.876;2022-07-23T10:42:51;55413.16;;;-140.56;25.53
10482;BME280;5288;42.334;23.876;2022-07-23T10:45:28;55347.97;;;-140.56;25.27
10482;BME280;5288;42.334;23.876;2022-07-23T10:48:11;55353.91;;;-140.56;23.86
10482;BME280;5288;42.334;23.876;2022-07-23T10:50:39;55379.59;;;-140.56;24.55
10482;BME280;5288;42.334;23.876;2022-07-23T10:53:16;55355.88;;;-140.56;24.17
10482;BME280;5288;42.334;23.876;2022-07-23T10:55:50;55330.19;;;-140.56;23.12
10482;BME280;5288;42.334;23.876;2022-07-23T10:58:20;55336.13;;;-140.56;23.36
10482;BME280;5288;42.334;23.876;2022-07-23T11:00:47;55332.16;;;-140.56;23.46
10482;BME280;5288;42.334;23.876;2022-07-23T11:03:32;55306.47;;;-140.56;23.04
10482;BME280;5288;42.334;23.876;2022-07-23T11:06:02;55332.16;;;-140.56;23.14
10482;BME280;5288;42.334;23.876;2022-07-23T11:08:29;55342.03;;;-140.56;23.96
10482;BME280;5288;42.334;23.876;2022-07-23T11:11:09;55290.66;;;-140.56;24.00
10482;BME280;5288;42.334;23.876;2022-07-23T11:13:44;55312.41;;;-140.56;22.48
10482;BME280;5288;42.334;23.876;2022-07-23T11:16:23;55314.38;;;-140.56;22.89
10482;BME280;5288;42.334;23.876;2022-07-23T11:19:04;55288.69;;;-140.56;22.54
10482;BME280;5288;42.334;23.876;2022-07-23T11:21:50;55276.84;;;-140.56;21.76
10482;BME280;5288;42.334;23.876;2022-07-23T11:24:22;55280.78;;;-140.56;21.83
10482;BME280;5288;42.334;23.876;2022-07-23T11:26:54;55314.38;;;-140.56;20.79
10482;BME280;5288;42.334;23.876;2022-07-23T11:29:44;55304.50;;;-140.56;22.01
10482;BME280;5288;42.334;23.876;2022-07-23T11:32:39;55294.63;;;-140.56;21.41
10482;BME280;5288;42.334;23.876;2022-07-23T11:35:22;55253.13;;;-140.56;22.57
10482;BME280;5288;42.334;23.876;2022-07-23T11:37:51;55280.78;;;-140.56;21.01
10482;BME280;5288;42.334;23.876;2022-07-23T11:40:25;55322.28;;;-140.56;22.38
10482;BME280;5288;42.334;23.876;2022-07-23T11:42:57;55320.31;;;-140.56;22.65
10482;BME280;5288;42.334;23.876;2022-07-23T11:45:25;55300.56;;;-140.56;21.63
10482;BME280;5288;42.334;23.876;2022-07-23T11:47:53;55298.56;;;-140.56;21.41
10482;BME280;5288;42.334;23.876;2022-07-23T11:50:23;55338.09;;;-140.56;21.66
10482;BME280;5288;42.334;23.876;2022-07-23T11:52:51;55304.50;;;-140.56;22.07
10482;BME280;5288;42.334;23.876;2022-07-23T11:55:18;55316.34;;;-140.56;22.16
10482;BME280;5288;42.334;23.876;2022-07-23T11:57:46;55320.31;;;-140.56;21.93
10482;BME280;5288;42.334;23.876;2022-07-23T12:00:16;55342.03;;;-140.56;21.96
10482;BME280;5288;42.334;23.876;2022-07-23T12:02:48;55314.38;;;-140.56;22.04
10482;BME280;5288;42.334;23.876;2022-07-23T12:05:18;55278.81;;;-140.56;21.98
10482;BME280;5288;42.334;23.876;2022-07-23T12:07:47;55308.44;;;-140.56;21.84
10482;BME280;5288;42.334;23.876;2022-07-23T12:10:18;55278.81;;;-140.56;22.04
10482;BME280;5288;42.334;23.876;2022-07-23T12:12:47;55241.28;;;-140.56;22.42
10482;BME280;5288;42.334;23.876;2022-07-23T12:15:18;55298.56;;;-140.56;20.88
10482;BME280;5288;42.334;23.876;2022-07-23T12:17:46;55282.75;;;-140.56;22.19
10482;BME280;5288;42.334;23.876;2022-07-23T12:20:15;55245.22;;;-140.56;21.76
10482;BME280;5288;42.334;23.876;2022-07-23T12:22:44;55263.00;;;-140.56;21.34
10482;BME280;5288;42.334;23.876;2022-07-23T12:25:13;55270.91;;;-140.56;21.59
10482;BME280;5288;42.334;23.876;2022-07-23T12:27:41;55290.66;;;-140.56;22.10
10482;BME280;5288;42.334;23.876;2022-07-23T12:30:23;55276.84;;;-140.56;21.87
10482;BME280;5288;42.334;23.876;2022-07-23T12:32:53;55259.06;;;-140.56;21.52
10482;BME280;5288;42.334;23.876;2022-07-23T12:35:22;55268.94;;;-140.56;21.20
10482;BME280;5288;42.334;23.876;2022-07-23T12:37:50;55241.28;;;-140.56;20.19
10482;BME280;5288;42.334;23.876;2022-07-23T12:40:31;55239.31;;;-140.56;20.47
10482;BME280;5288;42.334;23.876;2022-07-23T12:42:59;55225.47;;;-140.56;22.72
10482;BME280;5288;42.334;23.876;2022-07-23T12:45:42;55217.56;;;-140.56;21.23
10482;BME280;5288;42.334;23.876;2022-07-23T12:48:16;55223.50;;;-140.56;20.67